KDMN/DMN METAR and TAF weather

Enter ICAO airport designator
Station Type Date Time Source
KDMN METAR 2019/10/16 18:53 UTC NOAA

KDMN 161853Z AUTO 10013KT 10SM CLR 23/M01 A3023 RMK AO2 SLP180 T02281006 TSNO


Station Type Date Time Source
KDMN Decoded METAR 2019/10/16 18:53 UTC NOAA

DEMING MUNICIPAL AIRPORT, NM, United States (KDMN) 32-16N 107-43W 1311M
Oct 16, 2019 - 02:53 PM EDT / 2019.10.16 1853 UTC
Wind: from the E (100 degrees) at 15 MPH (13 KT):0
Visibility: 10 mile(s):0
Sky conditions: clear
Temperature: 73.0 F (22.8 C)
Dew Point: 30.9 F (-0.6 C)
Relative Humidity: 21%
Pressure (altimeter): 30.23 in. Hg (1023 hPa)
ob: KDMN 161853Z AUTO 10013KT 10SM CLR 23/M01 A3023 RMK AO2 SLP180 T02281006 TSNO
cycle: 19

Station Type Date Time Source
KDMN TAF 2019/10/16 18:39 UTC NOAA

TAF KDMN 161720Z 1618/1718 11009G16KT P6SM SKC
FM170300 06009KT P6SM SKC
FM171200 07005KT P6SM SKC

Example: see airport list